Time;durP1;ratioP1;P1;durP2;ratioP2;P2;SDS_P1;SDS_P2;PMS_P1;PMS_P2;Temp;Humidity;BMP_temperature;BMP_pressure;BME280_temperature;BME280_humidity;BME280_pressure;Samples;Min_cycle;Max_cycle;Signal;HPM_P1;HPM_P2
2021/05/23 00:01:59;;;;;;;2.05;0.68;;;;;;;10.34;51.54;100531.53;7975178;28;20033;-68
2021/05/23 00:05:50;;;;;;;0.85;0.70;;;;;;;10.33;51.01;100529.84;7983483;28;20541;-68
2021/05/23 00:09:41;;;;;;;1.83;0.90;;;;;;;10.29;51.43;100519.66;7982343;28;20051;-68
2021/05/23 00:13:39;;;;;;;1.92;0.70;;;;;;;10.32;50.95;100530.81;7972029;28;20033;-67
2021/05/23 00:17:29;;;;;;;0.63;0.60;;;;;;;10.29;51.55;100533.63;7977804;28;20445;-67
2021/05/23 00:21:22;;;;;;;1.75;0.75;;;;;;;10.25;51.34;100525.16;7981057;28;20463;-68
2021/05/23 00:25:21;;;;;;;0.90;0.70;;;;;;;10.31;51.34;100537.00;7982092;28;20032;-68
2021/05/23 00:29:12;;;;;;;1.77;0.52;;;;;;;10.30;51.72;100535.31;7975522;28;20477;-68
2021/05/23 00:33:04;;;;;;;2.80;0.98;;;;;;;10.30;51.38;100539.72;7976513;28;20047;-68
2021/05/23 00:36:55;;;;;;;0.73;0.73;;;;;;;10.27;51.35;100534.72;7975311;28;20551;-68
2021/05/23 00:40:45;;;;;;;0.85;0.80;;;;;;;10.28;51.43;100541.66;7974822;28;20029;-68
2021/05/23 00:44:36;;;;;;;2.00;0.75;;;;;;;10.28;51.53;100542.47;7981934;28;20112;-68
2021/05/23 00:48:27;;;;;;;0.50;0.50;;;;;;;10.29;51.63;100546.75;7987459;28;20043;-68
2021/05/23 00:52:17;;;;;;;1.30;0.73;;;;;;;10.29;51.58;100544.13;7978593;28;20036;-67
2021/05/23 00:56:08;;;;;;;0.93;0.70;;;;;;;10.29;51.66;100551.19;7977584;28;20039;-68
2021/05/23 00:59:59;;;;;;;1.02;0.73;;;;;;;10.27;51.63;100539.97;7979362;28;20048;-67
2021/05/23 01:03:49;;;;;;;2.25;0.98;;;;;;;10.29;51.60;100543.28;7975238;28;20037;-68
2021/05/23 01:07:41;;;;;;;1.40;0.98;;;;;;;10.27;51.46;100547.84;7981998;28;20049;-68
2021/05/23 01:11:32;;;;;;;1.63;0.85;;;;;;;10.26;51.70;100557.50;7972595;28;20034;-68
2021/05/23 01:15:47;;;;;;;1.70;1.00;;;;;;;10.20;51.52;100545.63;7974946;28;20660;-68
2021/05/23 01:20:01;;;;;;;1.80;0.85;;;;;;;10.22;51.46;100553.41;7979490;28;20482;-68
2021/05/23 01:23:57;;;;;;;1.55;0.60;;;;;;;10.19;51.64;100549.22;7973211;28;20631;-68
2021/05/23 01:27:51;;;;;;;1.58;0.90;;;;;;;10.18;51.53;100559.81;7973515;28;20046;-67
2021/05/23 01:31:42;;;;;;;0.73;0.60;;;;;;;10.12;51.84;100554.97;7979300;28;20045;-68
2021/05/23 01:35:36;;;;;;;3.40;0.82;;;;;;;10.15;51.67;100557.41;7961573;28;20397;-68
2021/05/23 01:39:26;;;;;;;3.10;0.85;;;;;;;10.11;51.89;100553.31;7979471;28;20030;-67
2021/05/23 01:43:19;;;;;;;2.40;0.70;;;;;;;10.08;51.96;100550.88;7978305;28;20037;-67
2021/05/23 01:47:10;;;;;;;1.38;0.90;;;;;;;10.11;51.91;100545.44;7980692;28;20647;-67
2021/05/23 01:51:01;;;;;;;1.35;0.82;;;;;;;10.11;51.97;100548.91;7971727;28;20037;-67
2021/05/23 01:54:52;;;;;;;0.75;0.55;;;;;;;10.09;51.94;100544.69;7975924;28;20041;-67
2021/05/23 01:58:42;;;;;;;0.73;0.60;;;;;;;10.12;52.14;100560.22;7977036;28;20400;-67
2021/05/23 02:02:33;;;;;;;0.98;0.88;;;;;;;10.06;52.20;100547.53;7968825;28;20160;-67
2021/05/23 02:06:24;;;;;;;0.60;0.60;;;;;;;10.10;52.17;100565.59;7973479;28;20025;-68
2021/05/23 02:10:17;;;;;;;0.50;0.45;;;;;;;10.09;51.94;100565.69;7976844;28;20059;-68
2021/05/23 02:14:08;;;;;;;2.55;0.77;;;;;;;10.07;52.26;100565.78;7977987;28;20508;-68
2021/05/23 02:17:59;;;;;;;1.10;0.70;;;;;;;10.04;52.48;100559.91;7984007;28;20053;-68
2021/05/23 02:21:50;;;;;;;1.75;0.77;;;;;;;10.06;52.29;100569.38;7977418;28;20564;-68
2021/05/23 02:25:41;;;;;;;2.05;0.80;;;;;;;10.03;52.49;100569.56;7971332;28;20115;-67
2021/05/23 02:29:32;;;;;;;0.98;0.70;;;;;;;10.03;52.64;100568.75;7975920;28;20065;-67
2021/05/23 02:33:25;;;;;;;0.70;0.70;;;;;;;10.00;52.49;100572.41;7974846;28;20049;-68
2021/05/23 02:37:15;;;;;;;3.00;0.75;;;;;;;9.98;52.54;100576.09;7972479;28;20095;-68
2021/05/23 02:41:06;;;;;;;0.85;0.85;;;;;;;9.96;52.83;100576.19;7973889;28;20022;-68
2021/05/23 02:44:57;;;;;;;1.23;1.10;;;;;;;9.95;52.82;100577.13;7973294;28;20116;-67
2021/05/23 02:48:47;;;;;;;0.77;0.73;;;;;;;9.94;52.54;100591.22;7978103;28;20187;-68
2021/05/23 02:52:38;;;;;;;1.08;0.90;;;;;;;9.94;52.62;100585.97;7979368;28;20025;-68
2021/05/23 02:56:29;;;;;;;1.77;1.20;;;;;;;9.92;52.63;100590.47;7977879;28;20053;-67
2021/05/23 03:00:22;;;;;;;0.75;0.75;;;;;;;9.92;52.88;100593.06;7975375;28;20032;-68
2021/05/23 03:04:13;;;;;;;0.70;0.70;;;;;;;9.91;52.87;100591.38;7972211;28;20025;-68
2021/05/23 03:08:04;;;;;;;0.73;0.73;;;;;;;9.89;52.85;100598.53;7982066;28;20140;-68
2021/05/23 03:11:55;;;;;;;1.20;0.90;;;;;;;9.86;53.14;100596.13;7981078;28;20044;-68
2021/05/23 03:15:45;;;;;;;1.60;1.33;;;;;;;9.84;53.18;100605.88;7979816;28;20039;-68
2021/05/23 03:19:37;;;;;;;1.15;1.05;;;;;;;9.83;53.60;100616.47;7983818;28;20433;-68
2021/05/23 03:23:28;;;;;;;1.83;1.05;;;;;;;9.84;53.56;100615.53;7977838;28;20099;-68
2021/05/23 03:27:19;;;;;;;1.73;1.30;;;;;;;9.86;53.51;100626.78;7978287;28;20083;-68
2021/05/23 03:31:09;;;;;;;1.70;1.27;;;;;;;9.86;53.59;100619.75;7976833;28;20045;-68
2021/05/23 03:35:01;;;;;;;1.25;1.15;;;;;;;9.88;53.35;100633.59;7984676;28;20048;-68
2021/05/23 03:38:51;;;;;;;1.83;1.50;;;;;;;9.89;53.21;100639.69;7983578;28;20074;-68
2021/05/23 03:42:44;;;;;;;1.70;1.23;;;;;;;9.89;53.42;100637.06;7982351;28;20112;-69
2021/05/23 03:46:35;;;;;;;2.70;1.50;;;;;;;9.89;53.53;100639.69;7975295;28;20045;-69
2021/05/23 03:50:25;;;;;;;2.15;1.50;;;;;;;9.86;53.55;100638.13;7990813;28;20095;-68
2021/05/23 03:54:16;;;;;;;2.33;1.60;;;;;;;9.91;53.80;100650.94;7978880;28;20056;-68
2021/05/23 03:58:07;;;;;;;1.80;1.40;;;;;;;9.90;53.69;100655.34;7978791;28;20925;-68
2021/05/23 04:01:58;;;;;;;4.43;1.60;;;;;;;9.89;53.66;100656.25;7978970;28;20151;-68
2021/05/23 04:05:49;;;;;;;1.73;1.52;;;;;;;9.91;53.68;100664.03;7977998;28;20036;-68
2021/05/23 04:09:39;;;;;;;3.08;1.60;;;;;;;9.91;53.87;100666.66;7977239;28;20041;-68
2021/05/23 04:13:32;;;;;;;2.45;1.80;;;;;;;9.91;53.77;100675.34;7974820;28;20639;-68
2021/05/23 04:17:25;;;;;;;4.43;1.73;;;;;;;9.89;53.87;100677.25;7982607;28;20037;-68
2021/05/23 04:21:16;;;;;;;5.40;1.67;;;;;;;9.90;53.69;100681.56;7984783;28;20022;-68
2021/05/23 04:25:11;;;;;;;2.53;1.73;;;;;;;9.92;53.94;100684.91;7979010;28;20167;-69
2021/05/23 04:29:02;;;;;;;3.83;1.65;;;;;;;9.93;53.87;100691.84;7980906;28;20033;-68
2021/05/23 04:32:54;;;;;;;3.83;2.05;;;;;;;9.96;53.94;100698.66;7978954;28;20052;-68
2021/05/23 04:36:45;;;;;;;4.63;1.92;;;;;;;9.91;53.92;100696.34;7974167;28;20036;-68
2021/05/23 04:40:36;;;;;;;3.00;1.50;;;;;;;9.94;54.04;100706.66;7974309;28;20222;-68
2021/05/23 04:44:26;;;;;;;2.83;1.63;;;;;;;9.94;54.05;100711.06;7977132;28;20564;-68
2021/05/23 04:48:17;;;;;;;2.63;1.58;;;;;;;9.93;54.11;100706.75;7981548;28;20680;-68
2021/05/23 04:52:09;;;;;;;2.97;1.48;;;;;;;9.94;54.15;100719.78;7977031;28;20045;-67
2021/05/23 04:56:00;;;;;;;1.92;1.27;;;;;;;9.94;54.18;100724.19;7976991;28;20639;-68
2021/05/23 04:59:52;;;;;;;2.80;1.55;;;;;;;9.91;54.16;100721.78;7980616;28;20113;-68
2021/05/23 05:03:43;;;;;;;3.60;1.48;;;;;;;9.95;54.28;100734.56;7980657;28;20046;-69
2021/05/23 05:07:34;;;;;;;1.88;1.17;;;;;;;9.91;54.18;100737.50;7967228;28;20029;-69
2021/05/23 05:11:24;;;;;;;2.05;1.40;;;;;;;9.96;54.28;100752.00;7984041;28;20025;-69
2021/05/23 05:15:15;;;;;;;2.72;1.38;;;;;;;9.95;54.16;100755.56;7978346;28;20079;-69
2021/05/23 05:19:07;;;;;;;3.40;1.05;;;;;;;9.96;53.90;100764.28;7973799;28;20102;-70
2021/05/23 05:22:58;;;;;;;1.38;1.05;;;;;;;9.92;53.86;100761.00;7979870;28;20040;-69
2021/05/23 05:26:48;;;;;;;7.30;1.10;;;;;;;9.89;54.10;100763.84;7975425;28;20045;-70
2021/05/23 05:30:39;;;;;;;3.38;0.85;;;;;;;9.84;53.77;100763.28;7972771;28;20049;-69
2021/05/23 05:34:30;;;;;;;1.50;0.85;;;;;;;9.79;54.12;100771.44;7973059;28;20030;-69
2021/05/23 05:38:21;;;;;;;3.60;1.00;;;;;;;9.71;54.09;100773.72;7972918;28;20156;-69
2021/05/23 05:42:12;;;;;;;1.80;0.73;;;;;;;9.78;53.89;100775.00;7980331;28;20355;-68
2021/05/23 05:46:03;;;;;;;4.82;1.10;;;;;;;9.82;54.19;100778.31;7972502;28;20044;-69
2021/05/23 05:49:53;;;;;;;2.13;1.00;;;;;;;9.85;53.95;100782.50;7974816;28;20037;-69
2021/05/23 05:53:44;;;;;;;4.05;1.20;;;;;;;9.85;54.26;100777.25;7976643;28;20033;-69
2021/05/23 05:57:35;;;;;;;1.88;1.08;;;;;;;9.87;54.11;100791.09;7980799;28;20029;-69
2021/05/23 06:01:25;;;;;;;2.17;1.27;;;;;;;9.84;54.01;100784.28;7971667;28;20044;-69
2021/05/23 06:05:16;;;;;;;2.13;1.35;;;;;;;9.82;54.09;100788.81;7975348;28;20104;-69
2021/05/23 06:09:07;;;;;;;2.20;1.10;;;;;;;9.87;54.42;100791.94;7977400;28;20109;-68
2021/05/23 06:12:58;;;;;;;3.25;1.38;;;;;;;9.91;54.21;100797.88;7974175;28;20038;-68
2021/05/23 06:16:48;;;;;;;4.78;1.08;;;;;;;9.91;54.18;100792.63;7973409;28;20075;-68
2021/05/23 06:20:39;;;;;;;3.05;1.17;;;;;;;10.03;54.28;100803.13;7971132;28;20116;-68
2021/05/23 06:24:29;;;;;;;3.45;1.17;;;;;;;10.07;54.31;100804.63;7971533;28;20033;-68
2021/05/23 06:28:20;;;;;;;2.20;1.20;;;;;;;10.17;53.85;100807.50;7981052;28;20104;-68
2021/05/23 06:32:11;;;;;;;2.53;1.00;;;;;;;10.30;54.14;100816.25;7980796;28;20049;-68
2021/05/23 06:36:02;;;;;;;4.18;1.20;;;;;;;10.70;54.25;100824.97;7971653;28;20033;-68
2021/05/23 06:39:54;;;;;;;3.65;1.10;;;;;;;11.32;54.04;100830.34;7988323;28;20045;-68
2021/05/23 06:43:45;;;;;;;3.72;1.25;;;;;;;11.95;53.93;100846.03;7975142;28;20041;-68
2021/05/23 06:47:37;;;;;;;3.95;1.30;;;;;;;13.38;54.08;100844.00;7971490;28;20402;-69
2021/05/23 06:51:27;;;;;;;4.53;1.20;;;;;;;14.91;53.30;100849.13;7971214;28;20508;-69
2021/05/23 06:55:18;;;;;;;5.57;1.30;;;;;;;16.22;52.14;100843.78;7972565;28;20031;-69
2021/05/23 06:59:08;;;;;;;5.07;1.52;;;;;;;17.46;51.17;100845.44;7971638;28;21440;-69
2021/05/23 07:02:59;;;;;;;2.10;1.20;;;;;;;18.45;50.12;100849.88;7978431;28;20048;-69
2021/05/23 07:06:50;;;;;;;3.55;1.38;;;;;;;19.76;48.87;100845.25;7958936;28;20209;-67
2021/05/23 07:10:41;;;;;;;6.20;1.92;;;;;;;20.32;47.41;100849.91;7971851;28;20115;-67
2021/05/23 07:14:31;;;;;;;4.53;1.40;;;;;;;21.06;46.66;100843.56;7967398;28;20072;-68
2021/05/23 07:18:23;;;;;;;3.78;1.35;;;;;;;21.72;45.11;100853.06;7972611;28;20048;-68
2021/05/23 07:22:14;;;;;;;6.72;1.45;;;;;;;22.44;44.38;100852.66;7966359;28;20052;-67
2021/05/23 07:26:05;;;;;;;5.10;1.48;;;;;;;23.20;43.07;100850.84;7964713;28;20037;-68
2021/05/23 07:29:56;;;;;;;2.28;1.08;;;;;;;23.99;41.95;100850.00;7969833;28;20036;-68
2021/05/23 07:33:46;;;;;;;5.18;1.67;;;;;;;24.79;40.98;100853.31;7971861;28;20071;-67
2021/05/23 07:37:37;;;;;;;4.43;1.20;;;;;;;25.42;39.82;100859.53;7964321;28;20037;-68
2021/05/23 07:41:27;;;;;;;3.72;1.42;;;;;;;25.64;38.99;100858.47;7970190;28;20051;-67
2021/05/23 07:45:18;;;;;;;5.53;1.33;;;;;;;25.58;38.47;100861.09;7969735;28;20048;-68
2021/05/23 07:49:09;;;;;;;2.67;1.15;;;;;;;25.56;37.90;100866.66;7970718;28;20122;-68
2021/05/23 07:53:02;;;;;;;6.63;1.73;;;;;;;25.80;37.51;100862.66;7980478;28;20046;-68
2021/05/23 07:56:54;;;;;;;4.88;1.75;;;;;;;26.12;37.21;100878.09;7980700;28;20037;-68
2021/05/23 08:00:44;;;;;;;4.20;1.10;;;;;;;26.09;36.57;100872.31;7977287;28;20047;-69
2021/05/23 08:04:35;;;;;;;2.83;1.33;;;;;;;25.76;36.13;100888.31;7977733;28;20040;-68
2021/05/23 08:08:25;;;;;;;2.08;1.23;;;;;;;25.62;35.52;100891.94;7976356;28;20025;-67
2021/05/23 08:12:18;;;;;;;1.73;0.85;;;;;;;25.13;35.06;100900.09;7975213;28;20037;-68
2021/05/23 08:16:10;;;;;;;4.28;1.40;;;;;;;24.71;34.70;100901.78;7979095;28;20048;-68
2021/05/23 08:20:00;;;;;;;4.82;1.60;;;;;;;24.28;34.95;100892.91;7978407;28;20053;-68
2021/05/23 08:23:51;;;;;;;4.30;1.30;;;;;;;24.03;35.00;100907.66;7964372;28;20330;-67
2021/05/23 08:27:42;;;;;;;3.15;1.13;;;;;;;23.87;34.93;100911.38;7975458;28;20033;-68
2021/05/23 08:31:33;;;;;;;4.93;1.30;;;;;;;23.39;34.99;100909.25;7980936;28;20090;-68
2021/05/23 08:35:25;;;;;;;4.05;1.13;;;;;;;22.84;35.21;100917.59;7971240;28;20517;-69
2021/05/23 08:39:16;;;;;;;1.90;1.05;;;;;;;21.92;35.19;100918.50;7972092;28;20033;-67
2021/05/23 08:43:09;;;;;;;4.55;1.08;;;;;;;21.21;35.91;100910.53;7975972;28;20040;-69
2021/05/23 08:47:01;;;;;;;4.45;0.98;;;;;;;21.04;36.54;100913.19;7975438;28;20037;-68
2021/05/23 08:50:52;;;;;;;3.38;1.45;;;;;;;21.04;36.68;100928.38;7971372;28;20034;-68
2021/05/23 08:54:43;;;;;;;3.20;1.15;;;;;;;21.04;36.92;100931.03;7974224;28;20068;-68
2021/05/23 08:58:34;;;;;;;2.75;0.98;;;;;;;20.96;36.92;100939.91;7955522;28;20037;-67
2021/05/23 09:02:26;;;;;;;3.45;1.08;;;;;;;20.79;36.78;100940.88;7972403;28;20049;-67
2021/05/23 09:06:28;;;;;;;1.63;0.80;;;;;;;20.66;36.92;100943.22;7973464;28;20029;-67
2021/05/23 09:10:33;;;;;;;1.55;0.70;;;;;;;20.42;36.38;100940.47;7968743;28;20033;-67
2021/05/23 09:14:53;;;;;;;2.67;0.90;;;;;;;20.17;36.66;100960.91;7970247;28;20148;-67
2021/05/23 09:18:50;;;;;;;2.28;1.13;;;;;;;19.76;35.85;100959.88;7961542;28;20413;-67
2021/05/23 09:22:41;;;;;;;2.05;1.13;;;;;;;19.25;35.82;100966.88;7971698;28;20184;-67
2021/05/23 09:26:39;;;;;;;3.33;1.48;;;;;;;18.87;36.17;100978.66;7971370;28;20398;-68
2021/05/23 09:30:32;;;;;;;;;;;;;;;18.52;37.84;100970.69;7977060;28;20048;-68
2021/05/23 09:34:28;;;;;;;4.35;1.00;;;;;;;18.45;37.14;100981.06;7970939;28;19913;-69
2021/05/23 09:38:18;;;;;;;2.28;1.13;;;;;;;18.35;36.81;100993.56;7971272;28;20035;-68
2021/05/23 09:42:11;;;;;;;1.67;1.10;;;;;;;18.24;36.67;100990.25;7969563;28;20471;-67
2021/05/23 09:46:04;;;;;;;3.33;0.93;;;;;;;18.21;36.87;100999.38;7969773;28;20045;-68
2021/05/23 09:49:56;;;;;;;4.05;1.30;;;;;;;18.13;36.74;100998.44;7972133;28;20490;-68
2021/05/23 09:53:58;;;;;;;4.78;0.90;;;;;;;17.99;36.54;100994.41;7983774;28;20081;-68
2021/05/23 09:57:49;;;;;;;3.03;0.80;;;;;;;17.86;36.78;101000.06;7974088;28;20720;-68
2021/05/23 10:01:41;;;;;;;0.73;0.60;;;;;;;17.80;36.82;100997.16;7974042;28;20038;-68
2021/05/23 10:05:31;;;;;;;2.15;0.80;;;;;;;17.69;36.82;101000.84;7968319;28;20052;-68
2021/05/23 10:09:24;;;;;;;1.45;0.80;;;;;;;17.51;36.16;100998.06;7970520;28;20040;-68
2021/05/23 10:13:16;;;;;;;3.20;0.90;;;;;;;17.28;36.20;101007.28;7973462;28;20095;-68
2021/05/23 10:17:08;;;;;;;1.70;0.90;;;;;;;17.05;36.29;101019.19;7968018;28;20038;-68
2021/05/23 10:20:59;;;;;;;3.88;1.02;;;;;;;16.76;36.11;101016.50;7976962;28;20041;-68
2021/05/23 10:25:02;;;;;;;3.50;0.90;;;;;;;16.57;36.33;101030.56;7974717;28;20069;-69
2021/05/23 10:28:54;;;;;;;3.40;1.05;;;;;;;16.43;36.51;101032.75;7968575;28;20115;-69
2021/05/23 10:32:44;;;;;;;2.42;0.98;;;;;;;16.36;36.76;101028.97;7974024;28;20556;-69
2021/05/23 10:36:41;;;;;;;4.30;1.20;;;;;;;16.38;36.78;101027.00;7966619;28;20037;-69
2021/05/23 10:40:32;;;;;;;1.98;0.82;;;;;;;16.37;36.76;101031.47;7971595;28;20665;-69
2021/05/23 10:44:23;;;;;;;2.00;0.85;;;;;;;16.43;36.97;101022.97;7973138;28;20091;-69
2021/05/23 10:48:18;;;;;;;2.60;1.13;;;;;;;16.47;36.80;101027.03;7969543;28;20044;-69
2021/05/23 10:52:16;;;;;;;1.50;0.90;;;;;;;16.53;36.78;101015.88;7969340;28;20037;-70
2021/05/23 10:56:18;;;;;;;1.92;0.90;;;;;;;16.58;36.70;101004.84;7967500;28;20029;-70
2021/05/23 11:00:14;;;;;;;2.42;1.17;;;;;;;16.60;36.54;101022.34;7968490;28;20120;-69
2021/05/23 11:04:10;;;;;;;5.53;1.05;;;;;;;16.62;36.51;101027.47;7968104;28;20625;-69
2021/05/23 11:08:05;;;;;;;1.15;0.80;;;;;;;16.64;36.76;101023.72;7961000;28;20041;-69
2021/05/23 11:12:09;;;;;;;1.33;0.75;;;;;;;16.63;36.51;101023.84;7969892;28;20036;-69
2021/05/23 11:16:19;;;;;;;3.58;1.02;;;;;;;16.59;36.34;101015.34;7972259;28;20133;-69
2021/05/23 11:20:24;;;;;;;5.28;1.00;;;;;;;16.61;36.42;101029.31;7974716;28;20036;-69
2021/05/23 11:24:15;;;;;;;2.20;0.80;;;;;;;16.58;36.30;101029.56;7978009;28;20052;-69
2021/05/23 11:28:08;;;;;;;1.92;0.75;;;;;;;16.58;36.06;101023.44;7971687;28;20037;-69
2021/05/23 11:31:58;;;;;;;2.58;1.20;;;;;;;16.55;36.11;101027.19;7980293;28;20528;-69
2021/05/23 11:35:52;;;;;;;1.52;0.80;;;;;;;16.66;35.96;101036.03;7978939;28;20041;-68
2021/05/23 11:39:43;;;;;;;0.73;0.73;;;;;;;16.61;35.89;101025.81;7976919;28;20037;-68
2021/05/23 11:43:34;;;;;;;2.47;0.98;;;;;;;16.64;35.99;101038.81;7977186;28;20130;-69
2021/05/23 11:47:24;;;;;;;4.32;1.10;;;;;;;16.71;35.92;101034.63;7975620;28;20045;-70
2021/05/23 11:51:22;;;;;;;2.65;1.20;;;;;;;16.78;35.97;101038.41;7976176;28;20036;-69
2021/05/23 11:55:13;;;;;;;1.00;0.73;;;;;;;16.84;36.02;101021.09;7973559;28;20033;-70
2021/05/23 11:59:06;;;;;;;6.25;1.38;;;;;;;16.88;35.93;101006.56;7976334;28;20033;-69
2021/05/23 12:03:00;;;;;;;1.77;0.93;;;;;;;16.86;35.57;101032.44;7978652;28;20049;-69
2021/05/23 12:06:55;;;;;;;0.93;0.70;;;;;;;16.84;35.35;101026.41;7972334;28;20473;-69
2021/05/23 12:11:03;;;;;;;3.85;1.20;;;;;;;16.80;35.29;101025.00;7971092;28;20585;-70
2021/05/23 12:14:54;;;;;;;1.52;0.80;;;;;;;16.81;35.55;101030.19;7977052;28;20052;-69
2021/05/23 12:18:45;;;;;;;1.65;1.00;;;;;;;16.78;35.43;101026.97;7974719;28;20143;-68
2021/05/23 12:22:38;;;;;;;2.13;0.73;;;;;;;16.77;35.36;101030.59;7975355;28;20084;-69
2021/05/23 12:26:29;;;;;;;2.63;0.75;;;;;;;16.81;35.78;101018.72;7974465;28;20083;-69
2021/05/23 12:30:28;;;;;;;1.80;0.80;;;;;;;16.91;35.65;101027.53;7970919;28;20046;-69
2021/05/23 12:34:19;;;;;;;2.97;1.02;;;;;;;16.96;35.73;101023.53;7988393;28;20172;-69
2021/05/23 12:38:13;;;;;;;1.60;0.70;;;;;;;17.03;35.57;101008.72;7970966;28;20049;-69
2021/05/23 12:42:04;;;;;;;1.88;0.80;;;;;;;17.07;35.82;101014.59;7971100;28;20501;-68
2021/05/23 12:45:58;;;;;;;1.55;0.77;;;;;;;17.13;35.73;101021.97;7976485;28;20079;-68
2021/05/23 12:49:48;;;;;;;1.10;0.90;;;;;;;17.11;35.96;101007.19;7975100;28;20540;-68
2021/05/23 12:53:44;;;;;;;2.03;1.02;;;;;;;17.25;35.39;101020.03;7973979;28;20526;-69
2021/05/23 12:57:35;;;;;;;1.50;0.75;;;;;;;17.25;35.48;101023.50;7973954;28;20124;-69
2021/05/23 13:01:36;;;;;;;2.05;0.77;;;;;;;17.23;35.38;101006.06;7968156;28;20090;-68
2021/05/23 13:05:26;;;;;;;2.22;0.82;;;;;;;17.35;35.88;101019.03;7972975;28;20052;-69
2021/05/23 13:09:18;;;;;;;1.45;0.82;;;;;;;17.32;35.85;101002.56;7975230;28;20048;-69
2021/05/23 13:13:09;;;;;;;2.60;1.00;;;;;;;17.39;35.90;101009.81;7975089;28;20080;-68
2021/05/23 13:17:01;;;;;;;1.67;0.82;;;;;;;17.39;35.60;101009.81;7977404;28;20502;-69
2021/05/23 13:20:52;;;;;;;1.13;0.70;;;;;;;17.36;35.67;101009.28;7974494;28;20043;-68
2021/05/23 13:24:45;;;;;;;0.93;0.75;;;;;;;17.28;35.64;100996.69;7975316;28;20047;-68
2021/05/23 13:28:35;;;;;;;2.40;0.80;;;;;;;17.25;35.34;101002.28;7974700;28;21233;-68
2021/05/23 13:32:27;;;;;;;3.80;0.85;;;;;;;17.23;35.43;100998.09;7973094;28;20045;-68
2021/05/23 13:36:17;;;;;;;2.42;0.70;;;;;;;17.20;35.49;100998.34;7966807;28;20619;-67
2021/05/23 13:40:10;;;;;;;0.90;0.75;;;;;;;17.25;35.12;100998.78;7969759;28;20033;-68
2021/05/23 13:44:01;;;;;;;1.98;0.70;;;;;;;17.17;34.98;100994.19;7971286;28;20037;-67
2021/05/23 13:47:51;;;;;;;1.17;0.70;;;;;;;17.19;35.20;100997.53;7970506;28;20095;-68
2021/05/23 13:51:43;;;;;;;1.83;1.00;;;;;;;17.21;35.02;101003.53;7972065;28;20037;-68
2021/05/23 13:55:34;;;;;;;1.45;0.77;;;;;;;17.21;35.06;101008.84;7972890;28;20102;-69
2021/05/23 13:59:24;;;;;;;0.80;0.65;;;;;;;17.24;35.21;101002.44;7970915;28;20363;-68
2021/05/23 14:03:16;;;;;;;1.50;1.02;;;;;;;17.29;34.71;101001.00;7973022;28;20087;-69
2021/05/23 14:07:07;;;;;;;2.10;0.95;;;;;;;17.26;34.71;101005.78;7972371;28;20041;-68
2021/05/23 14:10:59;;;;;;;1.40;0.82;;;;;;;17.24;34.74;101007.75;7966285;28;20451;-69
2021/05/23 14:14:50;;;;;;;0.85;0.73;;;;;;;17.21;34.83;100994.72;7977045;28;20033;-69
2021/05/23 14:18:41;;;;;;;2.25;1.00;;;;;;;17.20;34.96;101008.97;7971823;28;20055;-69
2021/05/23 14:22:31;;;;;;;3.30;1.17;;;;;;;17.12;34.58;101004.38;7973224;28;20029;-70
2021/05/23 14:26:24;;;;;;;1.95;1.05;;;;;;;17.11;34.75;101005.38;7969017;28;20041;-69
2021/05/23 14:30:16;;;;;;;1.40;0.90;;;;;;;17.06;34.90;100997.84;7971338;28;20071;-70
2021/05/23 14:34:07;;;;;;;2.42;0.85;;;;;;;17.14;35.07;101009.56;7974388;28;20752;-70
2021/05/23 14:37:58;;;;;;;0.88;0.60;;;;;;;17.17;34.85;101012.75;7971652;28;20041;-70
2021/05/23 14:41:48;;;;;;;3.55;0.82;;;;;;;17.19;34.65;101000.19;7969756;28;20056;-68
2021/05/23 14:45:39;;;;;;;1.50;0.70;;;;;;;17.21;34.58;101002.69;7967466;28;20509;-70
2021/05/23 14:49:29;;;;;;;1.88;0.63;;;;;;;17.22;34.72;100993.75;7973465;28;20044;-68
2021/05/23 14:53:20;;;;;;;0.95;0.70;;;;;;;17.23;34.52;100987.47;7977435;28;20041;-68
2021/05/23 14:57:11;;;;;;;0.70;0.70;;;;;;;17.32;34.58;100994.59;7968936;28;20041;-68
2021/05/23 15:01:04;;;;;;;1.30;0.77;;;;;;;17.33;34.49;100985.63;7968323;28;20132;-67
2021/05/23 15:04:54;;;;;;;1.58;0.68;;;;;;;17.36;34.62;100993.34;7973645;28;20049;-67
2021/05/23 15:08:45;;;;;;;1.42;0.73;;;;;;;17.37;34.45;100992.34;7972303;28;20060;-67
2021/05/23 15:12:39;;;;;;;2.17;0.60;;;;;;;17.39;34.53;100987.72;7968722;28;20801;-67
2021/05/23 15:16:29;;;;;;;1.77;0.60;;;;;;;17.37;34.55;100993.19;7970731;28;20038;-68
2021/05/23 15:20:20;;;;;;;1.55;0.70;;;;;;;17.32;34.59;100984.78;7972297;28;20537;-67
2021/05/23 15:24:11;;;;;;;0.70;0.63;;;;;;;17.37;34.65;100995.00;7969866;28;20575;-67
2021/05/23 15:32:11;;;;;;;0.50;0.50;;;;;;;17.35;34.62;100981.88;7972206;28;20049;-67
2021/05/23 15:36:03;;;;;;;1.23;0.65;;;;;;;17.30;34.46;100978.81;7966394;28;20122;-68
2021/05/23 15:39:53;;;;;;;3.55;0.80;;;;;;;17.30;34.56;100975.31;7968463;28;20034;-68
2021/05/23 15:43:44;;;;;;;2.20;0.75;;;;;;;17.25;34.39;100970.41;7969132;28;20041;-68
2021/05/23 15:47:35;;;;;;;0.60;0.60;;;;;;;17.18;34.54;100966.66;7973547;28;20033;-68
2021/05/23 15:51:25;;;;;;;1.90;0.70;;;;;;;17.14;34.54;100975.88;7971437;28;20029;-68
2021/05/23 15:55:16;;;;;;;1.45;0.90;;;;;;;17.11;34.55;100970.88;7970708;28;20070;-68
2021/05/23 15:59:07;;;;;;;0.88;0.73;;;;;;;17.08;34.63;100969.31;7971839;28;20037;-68
2021/05/23 16:02:57;;;;;;;1.33;0.80;;;;;;;17.05;34.53;100971.41;7969220;28;20076;-68
2021/05/23 16:06:48;;;;;;;2.58;1.05;;;;;;;17.04;34.62;100967.09;7960823;28;20045;-68
2021/05/23 16:10:39;;;;;;;3.63;0.93;;;;;;;17.01;34.80;100959.41;7971441;28;20033;-68
2021/05/23 16:14:30;;;;;;;1.73;0.70;;;;;;;17.02;34.80;100955.78;7973439;28;20036;-68
2021/05/23 16:18:20;;;;;;;1.95;0.73;;;;;;;16.99;34.83;100937.47;7972299;28;20046;-67
2021/05/23 16:22:11;;;;;;;2.63;1.17;;;;;;;17.09;34.78;100956.88;7979828;28;20035;-67
2021/05/23 16:26:03;;;;;;;1.88;0.70;;;;;;;17.08;34.89;100952.56;7972593;28;20352;-67
2021/05/23 16:29:53;;;;;;;1.38;0.88;;;;;;;17.07;34.87;100946.41;7971844;28;20033;-67
2021/05/23 16:33:44;;;;;;;0.60;0.60;;;;;;;17.05;34.88;100943.06;7977833;28;20045;-68
2021/05/23 16:37:35;;;;;;;1.48;0.77;;;;;;;17.03;34.96;100949.50;7976186;28;20070;-70
2021/05/23 16:41:25;;;;;;;1.20;0.68;;;;;;;17.02;34.80;100948.66;7973176;28;20025;-73
2021/05/23 16:45:16;;;;;;;1.80;0.90;;;;;;;17.00;35.17;100949.78;7977238;28;20036;-74
2021/05/23 16:49:07;;;;;;;0.70;0.65;;;;;;;16.96;34.98;100945.72;7977070;28;20045;-74
2021/05/23 16:52:58;;;;;;;1.38;0.93;;;;;;;16.98;35.10;100941.97;7978479;28;20547;-73
2021/05/23 16:56:48;;;;;;;1.45;0.70;;;;;;;16.94;35.02;100940.56;7970047;28;20493;-68
2021/05/23 17:00:39;;;;;;;2.28;0.90;;;;;;;16.91;35.08;100943.44;7971317;28;20107;-68
2021/05/23 17:04:31;;;;;;;1.40;0.80;;;;;;;16.83;34.99;100935.34;7969084;28;20040;-67
2021/05/23 17:08:21;;;;;;;1.02;0.65;;;;;;;16.81;34.94;100941.78;7973281;28;20298;-72
2021/05/23 17:12:12;;;;;;;3.33;0.80;;;;;;;16.76;35.22;100938.72;7991379;28;20034;-74
2021/05/23 17:16:04;;;;;;;2.78;0.80;;;;;;;16.76;35.34;100942.22;7978715;28;20037;-72
2021/05/23 17:19:54;;;;;;;1.33;0.63;;;;;;;16.74;35.09;100930.88;7987963;28;20214;-73
2021/05/23 17:23:45;;;;;;;5.65;0.82;;;;;;;16.69;35.14;100927.00;7967241;28;20048;-70
2021/05/23 17:27:41;;;;;;;1.48;0.70;;;;;;;16.63;34.77;100915.13;7968953;28;20025;-74
2021/05/23 17:31:32;;;;;;;1.30;0.70;;;;;;;16.62;35.28;100921.38;7972471;28;20070;-73
2021/05/23 17:35:23;;;;;;;1.23;0.70;;;;;;;16.60;34.93;100921.56;7975393;28;20067;-73
2021/05/23 17:39:14;;;;;;;0.65;0.52;;;;;;;16.56;34.82;100914.84;7978487;28;20037;-72
2021/05/23 17:43:05;;;;;;;1.08;0.80;;;;;;;16.53;35.00;100909.81;7941787;28;20140;-73
2021/05/23 17:46:55;;;;;;;2.97;0.90;;;;;;;16.54;35.04;100915.94;7978201;28;20041;-71
2021/05/23 17:50:46;;;;;;;1.13;0.60;;;;;;;16.50;35.04;100911.91;7956801;28;20038;-72
2021/05/23 17:54:37;;;;;;;0.43;0.43;;;;;;;16.48;35.18;100913.88;7943047;28;20035;-71
2021/05/23 17:58:27;;;;;;;1.63;0.90;;;;;;;16.41;35.31;100910.09;7970865;28;20022;-72
2021/05/23 18:02:19;;;;;;;1.38;0.80;;;;;;;16.38;35.24;100911.19;7971502;28;20038;-71
2021/05/23 18:06:12;;;;;;;2.55;0.80;;;;;;;16.34;35.24;100914.25;7969517;28;20040;-71